createdAt,value
2024-03-07T00:00:39.446Z,57.12
2024-03-07T00:01:39.469Z,57.07
2024-03-07T00:02:39.570Z,58.08
2024-03-07T00:03:39.556Z,57.07
2024-03-07T00:04:39.682Z,55.32
2024-03-07T00:05:39.672Z,59.25
2024-03-07T00:06:39.687Z,54.80
2024-03-07T00:07:39.744Z,57.54
2024-03-07T00:08:39.817Z,60.50
2024-03-07T00:09:40.276Z,61.31
2024-03-07T00:10:39.854Z,57.45
2024-03-07T00:11:40.014Z,59.68
2024-03-07T00:12:39.994Z,58.87
2024-03-07T00:13:40.049Z,56.67
2024-03-07T00:14:40.082Z,57.47
2024-03-07T00:15:40.064Z,57.72
2024-03-07T00:16:40.139Z,54.76
2024-03-07T00:17:40.294Z,59.65
2024-03-07T00:18:40.252Z,55.32
2024-03-07T00:19:40.248Z,58.28
2024-03-07T00:20:40.341Z,56.28
2024-03-07T00:21:40.349Z,58.21
2024-03-07T00:22:40.400Z,55.97
2024-03-07T00:23:40.514Z,55.60
2024-03-07T00:24:40.496Z,54.97
2024-03-07T00:25:40.531Z,56.84
2024-03-07T00:26:40.642Z,56.02
2024-03-07T00:27:40.627Z,55.96
2024-03-07T00:28:40.928Z,55.76
2024-03-07T00:29:40.749Z,56.10
2024-03-07T00:30:40.756Z,55.13
2024-03-07T00:31:40.812Z,57.19
2024-03-07T00:32:41.268Z,56.67
2024-03-07T00:33:53.432Z,57.20
2024-03-07T00:34:41.917Z,57.22
2024-03-07T00:35:40.896Z,57.45
2024-03-07T00:36:40.879Z,57.63
2024-03-07T00:37:40.888Z,56.25
2024-03-07T00:38:40.948Z,58.94
2024-03-07T00:39:40.875Z,55.33
2024-03-07T00:40:40.880Z,55.30
2024-03-07T00:41:40.991Z,55.00
2024-03-07T00:42:40.891Z,57.11
2024-03-07T00:43:40.920Z,56.53
2024-03-07T00:44:41.018Z,56.31
2024-03-07T00:45:41.023Z,56.49
2024-03-07T00:46:41.069Z,57.76
2024-03-07T00:47:41.324Z,56.69
2024-03-07T00:48:41.180Z,57.58
2024-03-07T00:49:41.235Z,54.09
2024-03-07T00:50:41.291Z,55.17
2024-03-07T00:51:41.303Z,55.15
2024-03-07T00:52:41.363Z,55.28
2024-03-07T00:53:41.458Z,54.05
2024-03-07T00:54:41.469Z,53.50
2024-03-07T00:55:41.525Z,56.84
2024-03-07T00:56:41.550Z,58.61
2024-03-07T00:57:41.581Z,53.76
2024-03-07T00:58:41.656Z,55.72
2024-03-07T00:59:41.712Z,58.40
2024-03-07T01:00:41.715Z,59.72
2024-03-07T01:01:41.813Z,60.44
2024-03-07T01:02:41.848Z,58.62
2024-03-07T01:03:41.879Z,59.19
2024-03-07T01:04:41.921Z,58.36
2024-03-07T01:05:41.995Z,61.47
2024-03-07T01:06:42.006Z,58.30
2024-03-07T01:07:42.052Z,58.57
2024-03-07T01:08:42.187Z,59.27
2024-03-07T01:09:42.133Z,59.60
2024-03-07T01:10:42.224Z,59.16
2024-03-07T01:11:42.276Z,60.07
2024-03-07T01:12:42.268Z,61.34
2024-03-07T01:13:42.346Z,60.01
2024-03-07T01:14:42.401Z,61.52
2024-03-07T01:15:42.400Z,61.12
2024-03-07T01:16:42.449Z,59.56
2024-03-07T01:17:42.604Z,61.13
2024-03-07T01:18:42.548Z,62.27
2024-03-07T01:19:42.608Z,60.72
2024-03-07T01:20:42.672Z,60.79
2024-03-07T01:21:42.657Z,60.20
2024-03-07T01:22:42.726Z,61.43
2024-03-07T01:23:42.831Z,60.64
2024-03-07T01:24:42.836Z,62.90
2024-03-07T01:25:42.851Z,62.31
2024-03-07T01:26:42.944Z,62.89
2024-03-07T01:27:42.941Z,61.83
2024-03-07T01:28:43.013Z,60.65
2024-03-07T01:29:43.041Z,61.44
2024-03-07T01:30:43.085Z,60.98
2024-03-07T01:31:43.128Z,62.62
2024-03-07T01:32:43.235Z,60.71
2024-03-07T01:33:43.318Z,61.44
2024-03-07T01:34:43.276Z,63.30
2024-03-07T01:35:43.356Z,62.56
2024-03-07T01:36:43.381Z,61.26
2024-03-07T01:37:43.428Z,61.88
2024-03-07T01:38:43.512Z,61.56
2024-03-07T01:39:43.523Z,61.81
2024-03-07T01:40:43.568Z,61.47
2024-03-07T01:41:43.622Z,61.32
2024-03-07T01:42:43.658Z,63.34
2024-03-07T01:43:43.713Z,62.62
2024-03-07T01:44:43.831Z,62.13
2024-03-07T01:45:43.789Z,61.70
2024-03-07T01:46:43.851Z,61.61
2024-03-07T01:47:43.975Z,58.37
2024-03-07T01:48:43.959Z,58.53
2024-03-07T01:49:43.994Z,56.36
2024-03-07T01:50:44.041Z,56.58
2024-03-07T01:51:44.065Z,57.29
2024-03-07T01:52:44.132Z,58.92
2024-03-07T01:53:44.199Z,58.57
2024-03-07T01:54:44.218Z,55.01
2024-03-07T01:55:44.251Z,56.49
2024-03-07T01:56:44.322Z,55.09
2024-03-07T01:57:44.338Z,53.77
2024-03-07T01:58:44.404Z,58.23
2024-03-07T01:59:44.490Z,56.91
2024-03-07T02:00:44.503Z,57.40
2024-03-07T02:01:44.545Z,56.61
2024-03-07T02:02:44.624Z,52.83
2024-03-07T02:03:44.627Z,55.16
2024-03-07T02:04:44.678Z,55.31
2024-03-07T02:05:44.748Z,53.00
2024-03-07T02:06:44.759Z,54.17
2024-03-07T02:07:44.815Z,55.42
2024-03-07T02:08:44.871Z,52.71
2024-03-07T02:09:44.896Z,53.36
2024-03-07T02:10:44.979Z,51.46
2024-03-07T02:11:45.078Z,52.18
2024-03-07T02:12:45.050Z,53.29
2024-03-07T02:13:45.111Z,52.96
2024-03-07T02:14:45.186Z,52.70
2024-03-07T02:15:45.190Z,51.24
2024-03-07T02:16:45.231Z,53.32
2024-03-07T02:17:45.337Z,51.67
2024-03-07T02:18:45.412Z,50.90
2024-03-07T02:19:45.408Z,50.86
2024-03-07T02:20:45.473Z,51.09
2024-03-07T02:21:45.474Z,50.87
2024-03-07T02:22:45.509Z,50.83
2024-03-07T02:23:45.618Z,50.06
2024-03-07T02:24:45.587Z,52.57
2024-03-07T02:25:45.654Z,54.62
2024-03-07T02:26:45.734Z,53.33
2024-03-07T02:27:45.732Z,51.88
2024-03-07T02:28:45.819Z,52.05
2024-03-07T02:29:45.893Z,53.20
2024-03-07T02:30:45.925Z,52.32
2024-03-07T02:31:45.938Z,53.29
2024-03-07T02:32:46.031Z,52.52
2024-03-07T02:33:46.086Z,52.00
2024-03-07T02:34:46.081Z,50.00
2024-03-07T02:35:46.226Z,54.63
2024-03-07T02:36:46.202Z,54.62
2024-03-07T02:37:46.239Z,52.46
2024-03-07T02:38:46.405Z,55.65
2024-03-07T02:39:46.421Z,53.94
2024-03-07T02:40:46.397Z,53.91
2024-03-07T02:41:46.486Z,53.52
2024-03-07T02:42:46.483Z,53.60
2024-03-07T02:43:46.560Z,52.06
2024-03-07T02:44:46.736Z,53.98
2024-03-07T02:45:46.642Z,53.95
2024-03-07T02:46:46.707Z,53.81
2024-03-07T02:47:46.802Z,54.13
2024-03-07T02:48:46.834Z,55.28
2024-03-07T02:49:46.845Z,55.64
2024-03-07T02:50:46.927Z,52.53
2024-03-07T02:51:46.931Z,55.06
2024-03-07T02:52:46.996Z,54.19
2024-03-07T02:53:47.090Z,55.48
2024-03-07T02:54:47.089Z,55.95
2024-03-07T02:55:47.153Z,54.69
2024-03-07T02:56:47.276Z,56.89
2024-03-07T02:57:47.275Z,57.43
2024-03-07T02:58:47.316Z,55.24
2024-03-07T02:59:47.494Z,54.25
2024-03-07T03:00:47.398Z,55.28
2024-03-07T03:01:47.476Z,55.08
2024-03-07T03:02:47.636Z,56.72
2024-03-07T03:03:47.572Z,55.91
2024-03-07T03:04:47.606Z,55.38
2024-03-07T03:05:47.685Z,59.46
2024-03-07T03:06:47.712Z,56.37
2024-03-07T03:07:47.756Z,56.07
2024-03-07T03:08:47.876Z,57.46
2024-03-07T03:09:47.858Z,58.79
2024-03-07T03:10:47.982Z,58.96
2024-03-07T03:11:48.063Z,60.30
2024-03-07T03:12:48.004Z,56.25
2024-03-07T03:13:48.095Z,58.52
2024-03-07T03:14:48.167Z,61.13
2024-03-07T03:15:48.188Z,60.28
2024-03-07T03:16:49.098Z,57.71
2024-03-07T03:17:48.374Z,60.05
2024-03-07T03:18:48.370Z,59.84
2024-03-07T03:19:48.379Z,61.65
2024-03-07T03:20:48.486Z,61.84
2024-03-07T03:21:48.461Z,61.82
2024-03-07T03:22:48.518Z,59.58
2024-03-07T03:23:48.592Z,63.40
2024-03-07T03:24:48.611Z,61.10
2024-03-07T03:25:48.661Z,63.09
2024-03-07T03:26:48.765Z,62.36
2024-03-07T03:27:48.753Z,61.98
2024-03-07T03:28:48.831Z,61.89
2024-03-07T03:29:48.890Z,62.00
2024-03-07T03:30:48.947Z,61.24
2024-03-07T03:31:48.955Z,62.26
2024-03-07T03:32:49.158Z,61.82
2024-03-07T03:33:49.061Z,59.43
2024-03-07T03:34:49.110Z,60.58
2024-03-07T03:35:49.212Z,60.62
2024-03-07T03:36:49.177Z,60.45
2024-03-07T03:37:49.248Z,58.49
2024-03-07T03:38:49.329Z,61.50
2024-03-07T03:39:49.311Z,59.91
2024-03-07T03:40:49.369Z,59.65
2024-03-07T03:41:49.427Z,59.53
2024-03-07T03:42:49.443Z,58.97
2024-03-07T03:43:49.528Z,60.46
2024-03-07T03:44:49.579Z,59.58
2024-03-07T03:45:49.594Z,58.74
2024-03-07T03:46:49.643Z,59.28
2024-03-07T03:47:49.800Z,59.39
2024-03-07T03:48:49.762Z,58.55
2024-03-07T03:49:49.794Z,58.87
2024-03-07T03:50:49.895Z,57.34
2024-03-07T03:51:49.899Z,57.62
2024-03-07T03:52:49.953Z,57.34
2024-03-07T03:53:50.077Z,57.18
2024-03-07T03:54:50.040Z,55.25
2024-03-07T03:55:50.085Z,56.10
2024-03-07T03:56:50.180Z,55.40
2024-03-07T03:57:50.934Z,53.34
2024-03-07T03:58:50.255Z,55.96
2024-03-07T03:59:50.381Z,55.03
2024-03-07T04:00:50.320Z,56.15
2024-03-07T04:01:50.438Z,57.14
2024-03-07T04:02:51.187Z,56.78
2024-03-07T04:03:50.466Z,53.83
2024-03-07T04:04:50.507Z,52.61
2024-03-07T04:05:50.628Z,55.21
2024-03-07T04:06:50.628Z,57.77
2024-03-07T04:07:50.729Z,55.59
2024-03-07T04:08:50.742Z,55.54
2024-03-07T04:09:50.732Z,55.07
2024-03-07T04:10:50.890Z,53.61
2024-03-07T04:11:50.882Z,55.00
2024-03-07T04:12:50.894Z,56.05
2024-03-07T04:13:50.948Z,55.83
2024-03-07T04:14:50.979Z,55.35
2024-03-07T04:15:51.153Z,56.62
2024-03-07T04:16:51.167Z,54.00
2024-03-07T04:17:51.285Z,56.70
2024-03-07T04:18:51.224Z,54.30
2024-03-07T04:19:51.201Z,57.22
2024-03-07T04:20:51.282Z,54.47
2024-03-07T04:21:51.330Z,56.40
2024-03-07T04:22:51.360Z,55.54
2024-03-07T04:23:51.419Z,55.15
2024-03-07T04:24:51.463Z,56.12
2024-03-07T04:25:51.499Z,56.57
2024-03-07T04:26:58.805Z,50.00
2024-03-07T04:27:58.732Z,50.00
2024-03-07T04:28:58.749Z,50.00
2024-03-07T04:29:58.796Z,50.00
2024-03-07T04:30:58.717Z,50.00
2024-03-07T04:32:05.956Z,50.00
2024-03-07T04:33:06.026Z,50.00
2024-03-07T04:34:05.958Z,50.00
2024-03-07T04:35:05.947Z,50.00
2024-03-07T04:36:06.048Z,50.00
2024-03-07T04:37:05.950Z,51.67
2024-03-07T04:38:05.961Z,51.71
2024-03-07T04:39:05.984Z,52.14
2024-03-07T04:40:05.968Z,53.30
2024-03-07T04:41:05.957Z,53.46
2024-03-07T04:42:06.011Z,50.39
2024-03-07T04:43:05.953Z,55.03
2024-03-07T04:44:05.961Z,52.25
2024-03-07T04:45:05.944Z,53.26
2024-03-07T04:46:05.965Z,51.69
2024-03-07T04:47:05.948Z,52.41
2024-03-07T04:48:06.008Z,53.34
2024-03-07T04:49:05.977Z,52.76
2024-03-07T04:50:05.962Z,53.44
2024-03-07T04:51:06.045Z,53.28
2024-03-07T04:52:05.992Z,54.28
2024-03-07T04:53:05.958Z,51.28
2024-03-07T04:54:05.997Z,53.85
2024-03-07T04:55:05.962Z,52.85
2024-03-07T04:56:05.967Z,55.45
2024-03-07T04:57:05.993Z,55.01
2024-03-07T04:58:05.974Z,53.25
2024-03-07T04:59:06.000Z,53.20
2024-03-07T05:00:06.033Z,54.41
2024-03-07T05:01:06.124Z,54.29
2024-03-07T05:02:06.154Z,54.50
2024-03-07T05:03:06.282Z,55.02
2024-03-07T05:04:06.251Z,55.72
2024-03-07T05:05:06.270Z,52.70
2024-03-07T05:06:06.342Z,56.72
2024-03-07T05:07:06.386Z,56.48
2024-03-07T05:08:06.427Z,56.29
2024-03-07T05:09:06.542Z,56.08
2024-03-07T05:10:06.542Z,55.23
2024-03-07T05:11:06.655Z,54.58
2024-03-07T05:12:06.646Z,54.67
2024-03-07T05:13:06.648Z,53.76
2024-03-07T05:14:06.740Z,54.34
2024-03-07T05:15:06.792Z,55.61
2024-03-07T05:16:06.830Z,56.59
2024-03-07T05:17:06.918Z,56.22
2024-03-07T05:18:07.004Z,55.05
2024-03-07T05:19:06.979Z,56.05
2024-03-07T05:20:07.005Z,53.28
2024-03-07T05:21:07.104Z,56.91
2024-03-07T05:22:07.235Z,55.78
2024-03-07T05:23:07.209Z,53.18
2024-03-07T05:24:07.308Z,53.60
2024-03-07T05:25:07.248Z,54.16
2024-03-07T05:26:07.297Z,54.34
2024-03-07T05:27:07.346Z,56.94
2024-03-07T05:28:07.391Z,55.33
2024-03-07T05:29:07.461Z,55.68
2024-03-07T05:30:10.505Z,54.01
2024-03-07T05:31:07.505Z,57.31
2024-03-07T05:32:07.501Z,52.59
2024-03-07T05:33:07.582Z,57.18
2024-03-07T05:34:07.537Z,58.78
2024-03-07T05:35:07.616Z,57.91
2024-03-07T05:36:07.558Z,56.24
2024-03-07T05:37:07.502Z,58.74
2024-03-07T05:38:07.528Z,58.56
2024-03-07T05:39:07.521Z,58.53
2024-03-07T05:40:07.515Z,60.52
2024-03-07T05:41:07.506Z,60.69
2024-03-07T05:42:07.568Z,61.99
2024-03-07T05:43:07.515Z,60.81
2024-03-07T05:44:07.530Z,59.20
2024-03-07T05:45:07.556Z,61.01
2024-03-07T05:46:07.524Z,61.68
2024-03-07T05:47:07.524Z,62.50
2024-03-07T05:48:07.594Z,63.68
2024-03-07T05:49:07.551Z,63.63
2024-03-07T05:50:07.523Z,60.85
2024-03-07T05:51:07.590Z,63.17
2024-03-07T05:52:07.545Z,64.53
2024-03-07T05:53:07.545Z,64.92
2024-03-07T05:54:07.568Z,63.96
2024-03-07T05:55:07.581Z,64.54
2024-03-07T05:56:07.537Z,64.54
2024-03-07T05:57:07.535Z,65.80
2024-03-07T05:58:07.556Z,66.44
2024-03-07T05:59:07.577Z,66.28
2024-03-07T06:00:07.616Z,65.94
2024-03-07T06:01:07.614Z,65.65
2024-03-07T06:02:07.576Z,65.38
2024-03-07T06:03:07.625Z,65.43
2024-03-07T06:04:07.584Z,64.42
2024-03-07T06:05:07.552Z,64.33
2024-03-07T06:06:07.572Z,65.43
2024-03-07T06:07:07.580Z,66.73
2024-03-07T06:08:07.558Z,66.54
2024-03-07T06:09:07.616Z,64.61
2024-03-07T06:10:07.604Z,66.60
2024-03-07T06:11:07.648Z,68.89
2024-03-07T06:12:13.733Z,66.79
2024-03-07T06:13:11.016Z,66.85
2024-03-07T06:14:07.763Z,66.87
2024-03-07T06:15:07.590Z,67.15
2024-03-07T06:16:07.581Z,67.50
2024-03-07T06:17:07.596Z,66.75
2024-03-07T06:18:07.642Z,69.72
2024-03-07T06:19:10.491Z,68.88
2024-03-07T06:20:07.609Z,68.98
2024-03-07T06:21:07.604Z,69.30
2024-03-07T06:22:07.587Z,70.92
2024-03-07T06:23:07.597Z,71.44
2024-03-07T06:24:08.122Z,73.92
2024-03-07T06:25:07.675Z,72.81
2024-03-07T06:26:07.620Z,73.94
2024-03-07T06:27:07.742Z,73.06
2024-03-07T06:28:07.616Z,75.32
2024-03-07T06:29:07.608Z,74.57
2024-03-07T06:30:08.115Z,75.44
2024-03-07T06:31:07.608Z,75.47
2024-03-07T06:32:07.619Z,73.92
2024-03-07T06:33:07.806Z,77.13
2024-03-07T06:34:07.609Z,79.85
2024-03-07T06:35:08.133Z,84.40
2024-03-07T06:36:07.736Z,86.86
2024-03-07T06:37:09.634Z,87.25
2024-03-07T06:38:15.747Z,89.00
2024-03-07T06:39:08.760Z,87.48
2024-03-07T06:40:08.125Z,90.68
2024-03-07T06:41:07.660Z,96.64
2024-03-07T06:42:07.665Z,110.30
2024-03-07T06:43:07.945Z,133.46
2024-03-07T06:44:07.640Z,143.24
2024-03-07T06:45:07.814Z,149.77
2024-03-07T06:46:07.694Z,153.46
2024-03-07T06:47:07.649Z,156.37
2024-03-07T06:48:07.716Z,162.47
2024-03-07T06:49:07.656Z,165.34
2024-03-07T06:50:08.746Z,168.40
2024-03-07T06:51:07.652Z,170.22
2024-03-07T06:52:07.664Z,170.57
2024-03-07T06:53:07.676Z,172.66
2024-03-07T06:54:07.689Z,174.17
2024-03-07T06:55:07.679Z,170.73
2024-03-07T06:56:07.702Z,170.32
2024-03-07T06:57:07.708Z,176.17
2024-03-07T06:58:07.834Z,174.91
2024-03-07T06:59:07.679Z,175.47
2024-03-07T07:00:07.685Z,176.27
2024-03-07T07:01:07.727Z,176.61
2024-03-07T07:02:07.713Z,175.16
2024-03-07T07:03:08.170Z,176.82
2024-03-07T07:04:07.686Z,175.92
2024-03-07T07:05:07.691Z,178.14
2024-03-07T07:06:07.738Z,177.09
2024-03-07T07:07:07.685Z,177.68
2024-03-07T07:08:08.004Z,175.82
2024-03-07T07:09:07.771Z,177.76
2024-03-07T07:10:08.153Z,176.53
2024-03-07T07:11:07.817Z,177.50
2024-03-07T07:12:07.735Z,177.65
2024-03-07T07:13:07.717Z,177.07
2024-03-07T07:14:07.704Z,177.39
2024-03-07T07:15:07.836Z,175.45
2024-03-07T07:16:07.778Z,174.82
2024-03-07T07:17:10.940Z,176.17
2024-03-07T07:18:08.792Z,175.66
2024-03-07T07:19:07.724Z,175.53
2024-03-07T07:20:07.738Z,175.14
2024-03-07T07:21:07.807Z,173.18
2024-03-07T07:22:07.758Z,174.50
2024-03-07T07:23:07.726Z,172.46
2024-03-07T07:24:07.802Z,172.62
2024-03-07T07:25:07.744Z,172.53
2024-03-07T07:26:07.755Z,171.91
2024-03-07T07:27:07.748Z,170.31
2024-03-07T07:28:07.752Z,171.99
2024-03-07T07:29:07.742Z,169.65
2024-03-07T07:30:07.752Z,169.30
2024-03-07T07:31:07.750Z,165.47
2024-03-07T07:32:07.744Z,167.46
2024-03-07T07:33:07.806Z,169.12
2024-03-07T07:34:07.781Z,172.08
2024-03-07T07:35:08.118Z,170.75
2024-03-07T07:36:07.853Z,177.38
2024-03-07T07:37:07.771Z,185.71
2024-03-07T07:38:07.771Z,183.78
2024-03-07T07:39:08.611Z,179.66
2024-03-07T07:40:08.138Z,178.34
2024-03-07T07:41:07.773Z,181.05
2024-03-07T07:42:10.500Z,179.28
2024-03-07T07:43:07.783Z,179.44
2024-03-07T07:44:07.772Z,180.06
2024-03-07T07:45:07.903Z,182.97
2024-03-07T07:46:07.780Z,188.25
2024-03-07T07:47:07.768Z,195.78
2024-03-07T07:48:07.821Z,198.05
2024-03-07T07:49:07.801Z,200.00
2024-03-07T07:50:07.822Z,199.19
2024-03-07T07:51:08.055Z,199.45
2024-03-07T07:52:07.783Z,198.62
2024-03-07T07:53:07.805Z,198.42
2024-03-07T07:54:07.875Z,198.63
2024-03-07T07:55:07.807Z,200.16
2024-03-07T07:56:07.966Z,199.18
2024-03-07T07:57:07.868Z,199.45
2024-03-07T07:58:07.802Z,198.64
2024-03-07T07:59:07.796Z,199.10
2024-03-07T08:00:07.790Z,200.00
2024-03-07T08:01:07.875Z,197.74
2024-03-07T08:02:07.809Z,197.90
2024-03-07T08:03:07.873Z,197.67
2024-03-07T08:04:07.800Z,196.38
2024-03-07T08:05:10.185Z,195.29
2024-03-07T08:06:08.083Z,196.99
2024-03-07T08:07:08.078Z,194.76
2024-03-07T08:08:08.392Z,193.34
2024-03-07T08:09:08.279Z,193.53
2024-03-07T08:10:08.300Z,191.27
2024-03-07T08:11:08.381Z,192.31
2024-03-07T08:12:08.469Z,190.88
2024-03-07T08:13:08.472Z,190.91
2024-03-07T08:14:08.556Z,190.20
2024-03-07T08:15:08.644Z,189.47
2024-03-07T08:16:08.688Z,188.63
2024-03-07T08:17:08.751Z,186.62
2024-03-07T08:18:08.868Z,186.81
2024-03-07T08:19:08.882Z,184.79
2024-03-07T08:20:08.928Z,184.71
2024-03-07T08:21:09.056Z,184.50
2024-03-07T08:22:09.195Z,183.58
2024-03-07T08:23:09.111Z,183.48
2024-03-07T08:24:09.223Z,180.17
2024-03-07T08:25:09.638Z,184.68
2024-03-07T08:26:09.291Z,184.22
2024-03-07T08:27:09.351Z,185.43
2024-03-07T08:28:09.422Z,185.59
2024-03-07T08:29:09.472Z,180.27
2024-03-07T08:30:09.634Z,183.04
2024-03-07T08:31:09.605Z,183.05
2024-03-07T08:32:09.660Z,179.42
2024-03-07T08:33:09.810Z,184.91
2024-03-07T08:34:09.778Z,189.66
2024-03-07T08:35:09.810Z,190.17
2024-03-07T08:36:09.888Z,195.68
2024-03-07T08:37:09.875Z,195.12
2024-03-07T08:38:09.985Z,191.82
2024-03-07T08:39:09.972Z,190.48
2024-03-07T08:40:10.009Z,195.89
2024-03-07T08:41:10.042Z,195.65
2024-03-07T08:42:10.077Z,190.95
2024-03-07T08:43:10.118Z,197.09
2024-03-07T08:44:10.127Z,194.17
2024-03-07T08:45:10.649Z,192.99
2024-03-07T08:46:10.195Z,196.27
2024-03-07T08:47:10.231Z,198.05
2024-03-07T08:48:10.786Z,198.34
2024-03-07T08:49:10.302Z,196.86
2024-03-07T08:50:10.339Z,197.29
2024-03-07T08:51:10.392Z,196.70
2024-03-07T08:52:10.372Z,196.42
2024-03-07T08:53:10.395Z,195.96
2024-03-07T08:54:10.452Z,195.34
2024-03-07T08:55:10.462Z,198.30
2024-03-07T08:56:10.470Z,195.58
2024-03-07T08:57:10.491Z,194.82
2024-03-07T08:58:10.530Z,193.20
2024-03-07T08:59:10.549Z,191.53
2024-03-07T09:00:10.578Z,194.75
2024-03-07T09:01:10.608Z,196.01
2024-03-07T09:02:10.609Z,200.00
2024-03-07T09:03:11.438Z,200.00
2024-03-07T09:04:10.666Z,200.55
2024-03-07T09:05:10.697Z,197.73
2024-03-07T09:06:10.780Z,198.89
2024-03-07T09:07:10.712Z,198.61
2024-03-07T09:08:10.741Z,196.92
2024-03-07T09:09:10.818Z,195.41
2024-03-07T09:10:10.809Z,192.06
2024-03-07T09:11:10.820Z,189.32
2024-03-07T09:12:10.992Z,200.00
2024-03-07T09:13:10.803Z,198.56
2024-03-07T09:14:10.862Z,200.00
2024-03-07T09:15:10.960Z,198.47
2024-03-07T09:16:10.846Z,198.20
2024-03-07T09:17:10.877Z,198.99
2024-03-07T09:18:11.151Z,197.75
2024-03-07T09:19:10.877Z,199.08
2024-03-07T09:20:12.057Z,196.76
2024-03-07T09:21:10.945Z,193.16
2024-03-07T09:22:10.912Z,189.81
2024-03-07T09:23:10.943Z,185.18
2024-03-07T09:24:10.996Z,180.35
2024-03-07T09:25:10.965Z,175.18
2024-03-07T09:26:11.034Z,168.93
2024-03-07T09:27:11.056Z,166.20
2024-03-07T09:28:11.093Z,159.70
2024-03-07T09:29:11.146Z,152.21
2024-03-07T09:30:11.215Z,149.41
2024-03-07T09:31:11.269Z,144.56
2024-03-07T09:32:11.368Z,146.38
2024-03-07T09:33:11.570Z,143.63
2024-03-07T09:34:11.480Z,146.57
2024-03-07T09:35:11.564Z,141.78
2024-03-07T09:36:11.719Z,140.39
2024-03-07T09:37:11.655Z,142.74
2024-03-07T09:38:11.720Z,138.98
2024-03-07T09:39:11.812Z,139.20
2024-03-07T09:40:12.242Z,133.73
2024-03-07T09:41:11.949Z,130.82
2024-03-07T09:42:12.020Z,124.88
2024-03-07T09:43:12.167Z,120.23
2024-03-07T09:44:12.124Z,113.99
2024-03-07T09:45:12.140Z,106.81
2024-03-07T09:46:12.153Z,98.56
2024-03-07T09:47:12.185Z,91.68
2024-03-07T09:48:12.378Z,86.88
2024-03-07T09:49:12.280Z,82.89
2024-03-07T09:50:12.317Z,78.55
2024-03-07T09:51:12.412Z,74.47
2024-03-07T09:52:12.410Z,71.71
2024-03-07T09:53:12.486Z,68.47
2024-03-07T09:54:12.520Z,65.86
2024-03-07T09:55:12.592Z,63.52
2024-03-07T09:56:12.638Z,60.25
2024-03-07T09:57:12.666Z,57.63
2024-03-07T09:58:12.750Z,56.12
2024-03-07T09:59:12.780Z,53.40
2024-03-07T10:00:12.863Z,55.04
2024-03-07T10:01:12.964Z,56.12
2024-03-07T10:02:12.951Z,56.04
2024-03-07T10:03:13.028Z,56.42
2024-03-07T10:04:13.103Z,55.70
2024-03-07T10:05:15.997Z,56.28
2024-03-07T10:06:13.155Z,56.57
2024-03-07T10:07:13.084Z,54.14
2024-03-07T10:08:13.094Z,54.25
2024-03-07T10:09:13.081Z,53.07
2024-03-07T10:10:13.194Z,51.23
2024-03-07T10:11:13.117Z,50.77
2024-03-07T10:12:13.198Z,51.31
2024-03-07T10:13:13.088Z,51.95
2024-03-07T10:14:13.113Z,51.28
2024-03-07T10:15:13.086Z,51.16
2024-03-07T10:16:13.105Z,52.96
2024-03-07T10:17:13.100Z,52.09
2024-03-07T10:18:13.535Z,54.30
2024-03-07T10:19:13.097Z,55.94
2024-03-07T10:20:13.106Z,57.64
2024-03-07T10:21:13.235Z,60.14
2024-03-07T10:22:13.107Z,64.17
2024-03-07T10:23:13.117Z,66.47
2024-03-07T10:24:13.104Z,69.37
2024-03-07T10:25:13.098Z,73.47
2024-03-07T10:26:13.189Z,74.62
2024-03-07T10:27:13.102Z,75.85
2024-03-07T10:28:13.114Z,77.98
2024-03-07T10:29:13.104Z,79.29
2024-03-07T10:30:15.136Z,82.93
2024-03-07T10:31:13.190Z,83.02
2024-03-07T10:32:13.112Z,83.71
2024-03-07T10:33:13.180Z,85.74
2024-03-07T10:34:13.118Z,87.52
2024-03-07T10:35:13.113Z,88.69
2024-03-07T10:36:13.249Z,88.66
2024-03-07T10:37:13.112Z,85.29
2024-03-07T10:38:15.389Z,82.42
2024-03-07T10:39:13.111Z,80.03
2024-03-07T10:40:13.233Z,77.19
2024-03-07T10:41:13.118Z,74.64
2024-03-07T10:42:13.424Z,72.23
2024-03-07T10:43:13.315Z,69.75
2024-03-07T10:44:13.134Z,65.63
2024-03-07T10:45:13.158Z,62.45
2024-03-07T10:46:13.175Z,58.97
2024-03-07T10:47:13.144Z,56.25
2024-03-07T10:48:13.254Z,54.87
2024-03-07T10:49:13.146Z,50.18
2024-03-07T10:50:13.133Z,51.91
2024-03-07T10:51:13.167Z,51.19
2024-03-07T10:52:13.149Z,51.07
2024-03-07T10:53:13.155Z,52.60
2024-03-07T10:54:13.186Z,50.37
2024-03-07T10:55:14.679Z,50.09
2024-03-07T10:56:13.157Z,50.13
2024-03-07T10:57:13.252Z,49.50
2024-03-07T10:58:13.167Z,47.19
2024-03-07T10:59:13.167Z,46.17
2024-03-07T11:00:13.230Z,45.40
2024-03-07T11:01:13.760Z,50.74
2024-03-07T11:02:13.229Z,51.97
2024-03-07T11:03:13.233Z,51.13
2024-03-07T11:04:13.276Z,51.64
2024-03-07T11:05:13.454Z,50.00
2024-03-07T11:06:13.402Z,50.68
2024-03-07T11:07:13.415Z,50.63
2024-03-07T11:08:14.355Z,50.04
2024-03-07T11:09:13.512Z,50.44
2024-03-07T11:10:13.508Z,50.92
2024-03-07T11:11:13.753Z,50.72
2024-03-07T11:12:13.543Z,50.17
2024-03-07T11:13:13.536Z,52.23
2024-03-07T11:14:13.554Z,51.35
2024-03-07T11:15:13.573Z,50.65
2024-03-07T11:16:14.227Z,51.22
2024-03-07T11:17:13.596Z,52.21
2024-03-07T11:18:13.925Z,52.01
2024-03-07T11:19:13.690Z,52.14
2024-03-07T11:20:14.233Z,54.18
2024-03-07T11:21:13.775Z,52.82
2024-03-07T11:22:13.778Z,51.93
2024-03-07T11:23:13.788Z,59.09
2024-03-07T11:24:13.802Z,61.92
2024-03-07T11:25:14.254Z,65.65
2024-03-07T11:26:13.876Z,69.51
2024-03-07T11:27:13.939Z,69.25
2024-03-07T11:28:14.019Z,68.38
2024-03-07T11:29:14.140Z,70.68
2024-03-07T11:30:14.184Z,70.20
2024-03-07T11:31:14.212Z,66.37
2024-03-07T11:32:14.339Z,65.55
2024-03-07T11:33:14.394Z,62.15
2024-03-07T11:34:14.438Z,60.86
2024-03-07T11:35:14.515Z,57.27
2024-03-07T11:36:14.564Z,53.53
2024-03-07T11:37:14.620Z,50.00
2024-03-07T11:38:14.707Z,48.66
2024-03-07T11:39:14.744Z,50.91
2024-03-07T11:40:14.848Z,52.15
2024-03-07T11:41:15.014Z,53.21
2024-03-07T11:42:14.961Z,54.24
2024-03-07T11:43:15.018Z,51.72
2024-03-07T11:44:15.063Z,49.35
2024-03-07T11:45:15.123Z,52.16
2024-03-07T11:46:15.103Z,64.03
2024-03-07T11:47:15.102Z,97.01
2024-03-07T11:48:15.138Z,110.73
2024-03-07T11:49:15.145Z,110.63
2024-03-07T11:50:15.212Z,108.52
2024-03-07T11:51:15.137Z,108.56
2024-03-07T11:52:15.169Z,107.02
2024-03-07T11:53:15.185Z,103.61
2024-03-07T11:54:15.224Z,101.56
2024-03-07T11:55:15.748Z,99.57
2024-03-07T11:56:15.294Z,96.02
2024-03-07T11:57:15.320Z,93.27
2024-03-07T11:58:15.361Z,89.91
2024-03-07T11:59:15.385Z,86.17
2024-03-07T12:00:15.460Z,80.95
2024-03-07T12:01:15.685Z,75.96
2024-03-07T12:02:15.588Z,73.30
2024-03-07T12:03:15.568Z,70.21
2024-03-07T12:04:15.612Z,73.40
2024-03-07T12:05:15.756Z,66.83
2024-03-07T12:06:15.801Z,64.54
2024-03-07T12:07:15.770Z,59.77
2024-03-07T12:08:15.828Z,57.44
2024-03-07T12:09:15.913Z,56.48
2024-03-07T12:10:15.975Z,54.32
2024-03-07T12:11:16.280Z,57.35
2024-03-07T12:12:16.092Z,58.24
2024-03-07T12:13:16.114Z,60.86
2024-03-07T12:14:16.186Z,62.01
2024-03-07T12:15:16.214Z,62.87
2024-03-07T12:16:16.744Z,62.36
2024-03-07T12:17:16.345Z,57.99
2024-03-07T12:18:16.469Z,56.35
2024-03-07T12:19:16.523Z,55.89
2024-03-07T12:20:16.758Z,51.77
2024-03-07T12:21:16.659Z,51.13
2024-03-07T12:22:16.680Z,50.31
2024-03-07T12:23:16.703Z,50.00
2024-03-07T12:24:16.859Z,50.24
2024-03-07T12:25:16.801Z,49.94
2024-03-07T12:26:16.910Z,50.00
2024-03-07T12:27:16.981Z,50.24
2024-03-07T12:28:17.016Z,50.05
2024-03-07T12:29:17.200Z,50.10
2024-03-07T12:30:17.175Z,50.27
2024-03-07T12:31:17.722Z,50.09
2024-03-07T12:32:17.452Z,50.83
2024-03-07T12:33:17.467Z,50.63
2024-03-07T12:34:17.407Z,50.00
2024-03-07T12:35:17.525Z,50.01
2024-03-07T12:36:17.492Z,50.00
2024-03-07T12:37:17.638Z,50.00
2024-03-07T12:38:17.592Z,50.49
2024-03-07T12:39:17.499Z,50.26
2024-03-07T12:40:17.470Z,50.03
2024-03-07T12:41:18.403Z,50.37
2024-03-07T12:42:17.488Z,51.69
2024-03-07T12:43:17.542Z,50.43
2024-03-07T12:44:17.580Z,50.21
2024-03-07T12:45:17.590Z,51.38
2024-03-07T12:46:17.867Z,52.33
2024-03-07T12:47:17.866Z,50.94